PWSweather.com
Personal Weather Stations
Station Observations
KMOHERMA2
Stony Hill, Hermann, MO 65041

Stony HillHermann, MO 65041

Lat: 38.527, Lon: -91.414

Elevation: 896

Station Type: Davis Vantage Pro 2

High Low Average
Temperature 30.9°F-0.6°C 21.2°F-6.0°C 27.0°F-2.8°C
Dew Point 29.5°F-1.4°C 14.4°F-9.8°C 24.4°F-4.2°C
Winds 2.0 mph 3.2 kmh Calm Calm Calm SECalm SE
Wind Gusts 6.0 mph9.7 kmh -- --
Humidity 95% 74% 90%
Pressure 30.50 in1032.8 mb 30.13 in1020.3 mb -
Precipitation 0.12 in3.0 mm - -
Hour Temp Dew Point Humidity Winds Wind Gusts Pressure Precip Precip Rate Daily Precip Total
12:00 AM 21.6°F-5.8°C 14.5°F-9.7°C 74% Calm Calm -- 30.50 in1032.8 mb 0.00 in0.0 mm 0.00 in0.0 mm 0.00 in0.0 mm
12:05 AM 21.6°F-5.8°C 14.5°F-9.7°C 74% Calm Calm -- 30.49 in1032.5 mb 0.00 in0.0 mm 0.00 in0.0 mm 0.00 in0.0 mm
12:10 AM 21.6°F-5.8°C 14.5°F-9.7°C 74% Calm Calm -- 30.49 in1032.5 mb 0.00 in0.0 mm 0.00 in0.0 mm 0.00 in0.0 mm
12:15 AM 21.5°F-5.8°C 14.5°F-9.7°C 74% Calm Calm -- 30.49 in1032.5 mb 0.00 in0.0 mm 0.00 in0.0 mm 0.00 in0.0 mm
12:20 AM 21.5°F-5.8°C 14.5°F-9.7°C 74% Calm Calm -- 30.48 in1032.2 mb 0.00 in0.0 mm 0.00 in0.0 mm 0.00 in0.0 mm
12:25 AM 21.4°F-5.9°C 14.4°F-9.8°C 74% Calm Calm -- 30.48 in1032.2 mb 0.00 in0.0 mm 0.00 in0.0 mm 0.00 in0.0 mm
12:30 AM 21.4°F-5.9°C 14.7°F-9.6°C 75% Calm Calm -- 30.48 in1032.2 mb 0.00 in0.0 mm 0.00 in0.0 mm 0.00 in0.0 mm
12:35 AM 21.4°F-5.9°C 14.7°F-9.6°C 75% Calm Calm -- 30.48 in1032.2 mb 0.00 in0.0 mm 0.00 in0.0 mm 0.00 in0.0 mm
12:40 AM 21.4°F-5.9°C 14.7°F-9.6°C 75% Calm Calm -- 30.47 in1031.8 mb 0.00 in0.0 mm 0.00 in0.0 mm 0.00 in0.0 mm
12:45 AM 21.4°F-5.9°C 14.7°F-9.6°C 75% Calm Calm -- 30.47 in1031.8 mb 0.00 in0.0 mm 0.00 in0.0 mm 0.00 in0.0 mm
12:50 AM 21.4°F-5.9°C 14.7°F-9.6°C 75% Calm Calm -- 30.47 in1031.8 mb 0.00 in0.0 mm 0.00 in0.0 mm 0.00 in0.0 mm
12:55 AM 21.3°F-5.9°C 14.7°F-9.6°C 75% Calm Calm -- 30.47 in1031.8 mb 0.00 in0.0 mm 0.00 in0.0 mm 0.00 in0.0 mm
01:00 AM 21.3°F-5.9°C 14.7°F-9.6°C 75% Calm Calm -- 30.46 in1031.5 mb 0.00 in0.0 mm 0.00 in0.0 mm 0.00 in0.0 mm
01:05 AM 21.3°F-5.9°C 14.7°F-9.6°C 75% Calm Calm -- 30.46 in1031.5 mb 0.00 in0.0 mm 0.00 in0.0 mm 0.00 in0.0 mm
01:10 AM 21.4°F-5.9°C 14.7°F-9.6°C 75% Calm Calm -- 30.46 in1031.5 mb 0.00 in0.0 mm 0.00 in0.0 mm 0.00 in0.0 mm
01:15 AM 21.3°F-5.9°C 15.1°F-9.4°C 76% Calm Calm -- 30.46 in1031.5 mb 0.00 in0.0 mm 0.00 in0.0 mm 0.00 in0.0 mm
01:20 AM 21.3°F-5.9°C 15.1°F-9.4°C 76% Calm Calm -- 30.45 in1031.2 mb 0.00 in0.0 mm 0.00 in0.0 mm 0.00 in0.0 mm
01:25 AM 21.4°F-5.9°C 15.1°F-9.4°C 76% Calm Calm -- 30.45 in1031.2 mb 0.00 in0.0 mm 0.00 in0.0 mm 0.00 in0.0 mm
01:30 AM 21.4°F-5.9°C 15.1°F-9.4°C 76% Calm Calm -- 30.45 in1031.2 mb 0.00 in0.0 mm 0.00 in0.0 mm 0.00 in0.0 mm
01:35 AM 21.3°F-5.9°C 15.1°F-9.4°C 76% Calm Calm -- 30.45 in1031.2 mb 0.00 in0.0 mm 0.00 in0.0 mm 0.00 in0.0 mm
01:40 AM 21.3°F-5.9°C 15.1°F-9.4°C 76% Calm Calm -- 30.44 in1030.8 mb 0.00 in0.0 mm 0.00 in0.0 mm 0.00 in0.0 mm
01:45 AM 21.3°F-5.9°C 15.1°F-9.4°C 76% Calm Calm -- 30.43 in1030.5 mb 0.00 in0.0 mm 0.00 in0.0 mm 0.00 in0.0 mm
01:50 AM 21.3°F-5.9°C 15.1°F-9.4°C 76% Calm Calm -- 30.43 in1030.5 mb 0.00 in0.0 mm 0.00 in0.0 mm 0.00 in0.0 mm
01:55 AM 21.3°F-5.9°C 15.1°F-9.4°C 76% Calm Calm -- 30.43 in1030.5 mb 0.00 in0.0 mm 0.00 in0.0 mm 0.00 in0.0 mm
02:00 AM 21.3°F-5.9°C 15.1°F-9.4°C 76% Calm Calm -- 30.43 in1030.5 mb 0.00 in0.0 mm 0.00 in0.0 mm 0.00 in0.0 mm
02:05 AM 21.3°F-5.9°C 15.1°F-9.4°C 76% Calm Calm -- 30.43 in1030.5 mb 0.00 in0.0 mm 0.00 in0.0 mm 0.00 in0.0 mm
02:10 AM 21.3°F-5.9°C 15.1°F-9.4°C 76% Calm Calm -- 30.43 in1030.5 mb 0.00 in0.0 mm 0.00 in0.0 mm 0.00 in0.0 mm
02:15 AM 21.3°F-5.9°C 15.3°F-9.3°C 77% Calm Calm -- 30.42 in1030.1 mb 0.00 in0.0 mm 0.00 in0.0 mm 0.00 in0.0 mm
02:20 AM 21.2°F-6.0°C 15.1°F-9.4°C 77% Calm Calm -- 30.41 in1029.8 mb 0.00 in0.0 mm 0.00 in0.0 mm 0.00 in0.0 mm
02:25 AM 21.2°F-6.0°C 15.1°F-9.4°C 77% Calm Calm -- 30.40 in1029.5 mb 0.00 in0.0 mm 0.00 in0.0 mm 0.00 in0.0 mm
02:30 AM 21.2°F-6.0°C 15.1°F-9.4°C 77% Calm Calm -- 30.41 in1029.8 mb 0.00 in0.0 mm 0.00 in0.0 mm 0.00 in0.0 mm
02:35 AM 21.2°F-6.0°C 15.1°F-9.4°C 77% Calm Calm -- 30.41 in1029.8 mb 0.00 in0.0 mm 0.00 in0.0 mm 0.00 in0.0 mm
02:40 AM 21.3°F-5.9°C 15.3°F-9.3°C 77% Calm Calm -- 30.41 in1029.8 mb 0.00 in0.0 mm 0.00 in0.0 mm 0.00 in0.0 mm
02:45 AM 21.3°F-5.9°C 15.3°F-9.3°C 77% Calm Calm -- 30.41 in1029.8 mb 0.00 in0.0 mm 0.00 in0.0 mm 0.00 in0.0 mm
02:50 AM 21.4°F-5.9°C 15.3°F-9.3°C 77% Calm Calm -- 30.41 in1029.8 mb 0.00 in0.0 mm 0.00 in0.0 mm 0.00 in0.0 mm
02:55 AM 21.4°F-5.9°C 15.3°F-9.3°C 77% Calm Calm -- 30.40 in1029.5 mb 0.00 in0.0 mm 0.00 in0.0 mm 0.00 in0.0 mm
03:00 AM 21.5°F-5.8°C 15.4°F-9.2°C 77% Calm Calm -- 30.40 in1029.5 mb 0.00 in0.0 mm 0.00 in0.0 mm 0.00 in0.0 mm
03:05 AM 21.5°F-5.8°C 15.4°F-9.2°C 77% Calm Calm -- 30.40 in1029.5 mb 0.00 in0.0 mm 0.00 in0.0 mm 0.00 in0.0 mm
03:10 AM 21.6°F-5.8°C 15.4°F-9.2°C 77% Calm Calm -- 30.39 in1029.1 mb 0.00 in0.0 mm 0.00 in0.0 mm 0.00 in0.0 mm
03:15 AM 21.7°F-5.7°C 15.6°F-9.1°C 77% Calm Calm -- 30.39 in1029.1 mb 0.00 in0.0 mm 0.00 in0.0 mm 0.00 in0.0 mm
03:20 AM 21.7°F-5.7°C 15.6°F-9.1°C 77% Calm Calm -- 30.39 in1029.1 mb 0.00 in0.0 mm 0.00 in0.0 mm 0.00 in0.0 mm
03:25 AM 21.7°F-5.7°C 15.6°F-9.1°C 77% Calm Calm -- 30.38 in1028.8 mb 0.00 in0.0 mm 0.00 in0.0 mm 0.00 in0.0 mm
03:30 AM 21.8°F-5.7°C 15.6°F-9.1°C 77% Calm Calm -- 30.38 in1028.8 mb 0.00 in0.0 mm 0.00 in0.0 mm 0.00 in0.0 mm
03:35 AM 21.8°F-5.7°C 15.6°F-9.1°C 77% Calm Calm -- 30.37 in1028.4 mb 0.00 in0.0 mm 0.00 in0.0 mm 0.00 in0.0 mm
03:40 AM 21.8°F-5.7°C 15.4°F-9.2°C 76% Calm Calm -- 30.37 in1028.4 mb 0.00 in0.0 mm 0.00 in0.0 mm 0.00 in0.0 mm
03:45 AM 21.8°F-5.7°C 15.4°F-9.2°C 76% Calm Calm -- 30.36 in1028.1 mb 0.00 in0.0 mm 0.00 in0.0 mm 0.00 in0.0 mm
03:50 AM 21.9°F-5.6°C 15.6°F-9.1°C 76% Calm Calm -- 30.36 in1028.1 mb 0.00 in0.0 mm 0.00 in0.0 mm 0.00 in0.0 mm
03:55 AM 21.9°F-5.6°C 15.6°F-9.1°C 76% Calm Calm -- 30.36 in1028.1 mb 0.00 in0.0 mm 0.00 in0.0 mm 0.00 in0.0 mm
04:00 AM 21.9°F-5.6°C 15.6°F-9.1°C 76% Calm Calm -- 30.35 in1027.8 mb 0.00 in0.0 mm 0.00 in0.0 mm 0.00 in0.0 mm
04:05 AM 21.9°F-5.6°C 15.6°F-9.1°C 76% Calm Calm -- 30.35 in1027.8 mb 0.00 in0.0 mm 0.00 in0.0 mm 0.00 in0.0 mm
04:10 AM 22.0°F-5.6°C 15.6°F-9.1°C 76% Calm Calm -- 30.35 in1027.8 mb 0.00 in0.0 mm 0.00 in0.0 mm 0.00 in0.0 mm
04:15 AM 22.1°F-5.5°C 15.8°F-9.0°C 76% Calm Calm -- 30.36 in1028.1 mb 0.00 in0.0 mm 0.00 in0.0 mm 0.00 in0.0 mm
04:20 AM 22.1°F-5.5°C 15.8°F-9.0°C 76% Calm Calm -- 30.35 in1027.8 mb 0.00 in0.0 mm 0.00 in0.0 mm 0.00 in0.0 mm
04:25 AM 22.2°F-5.4°C 16.2°F-8.8°C 77% Calm Calm -- 30.35 in1027.8 mb 0.00 in0.0 mm 0.00 in0.0 mm 0.00 in0.0 mm
04:30 AM 22.2°F-5.4°C 16.2°F-8.8°C 77% Calm Calm -- 30.35 in1027.8 mb 0.00 in0.0 mm 0.00 in0.0 mm 0.00 in0.0 mm
04:35 AM 22.3°F-5.4°C 16.2°F-8.8°C 77% Calm Calm -- 30.35 in1027.8 mb 0.00 in0.0 mm 0.00 in0.0 mm 0.00 in0.0 mm
04:40 AM 22.3°F-5.4°C 16.5°F-8.6°C 78% Calm Calm -- 30.35 in1027.8 mb 0.00 in0.0 mm 0.00 in0.0 mm 0.00 in0.0 mm
04:45 AM 22.4°F-5.3°C 16.9°F-8.4°C 79% Calm Calm -- 30.35 in1027.8 mb 0.00 in0.0 mm 0.00 in0.0 mm 0.00 in0.0 mm
04:50 AM 22.4°F-5.3°C 17.2°F-8.2°C 80% Calm Calm -- 30.34 in1027.4 mb 0.00 in0.0 mm 0.00 in0.0 mm 0.00 in0.0 mm
04:55 AM 22.4°F-5.3°C 17.2°F-8.2°C 80% Calm Calm -- 30.35 in1027.8 mb 0.00 in0.0 mm 0.00 in0.0 mm 0.00 in0.0 mm
05:00 AM 22.5°F-5.3°C 17.6°F-8.0°C 81% Calm Calm -- 30.36 in1028.1 mb 0.00 in0.0 mm 0.00 in0.0 mm 0.00 in0.0 mm
05:05 AM 22.4°F-5.3°C 17.8°F-7.9°C 82% Calm Calm -- 30.36 in1028.1 mb 0.00 in0.0 mm 0.00 in0.0 mm 0.00 in0.0 mm
05:10 AM 22.4°F-5.3°C 17.8°F-7.9°C 82% Calm Calm -- 30.36 in1028.1 mb 0.00 in0.0 mm 0.00 in0.0 mm 0.00 in0.0 mm
05:15 AM 22.4°F-5.3°C 18.1°F-7.7°C 83% Calm Calm -- 30.36 in1028.1 mb 0.00 in0.0 mm 0.00 in0.0 mm 0.00 in0.0 mm
05:20 AM 22.4°F-5.3°C 18.1°F-7.7°C 83% Calm Calm -- 30.35 in1027.8 mb 0.00 in0.0 mm 0.00 in0.0 mm 0.00 in0.0 mm
05:25 AM 22.3°F-5.4°C 18.1°F-7.7°C 84% Calm Calm -- 30.34 in1027.4 mb 0.00 in0.0 mm 0.00 in0.0 mm 0.00 in0.0 mm
05:30 AM 22.3°F-5.4°C 18.5°F-7.5°C 85% Calm Calm -- 30.35 in1027.8 mb 0.00 in0.0 mm 0.00 in0.0 mm 0.00 in0.0 mm
05:35 AM 22.3°F-5.4°C 18.5°F-7.5°C 85% Calm Calm -- 30.35 in1027.8 mb 0.00 in0.0 mm 0.00 in0.0 mm 0.00 in0.0 mm
05:40 AM 22.3°F-5.4°C 18.7°F-7.4°C 86% Calm Calm -- 30.34 in1027.4 mb 0.00 in0.0 mm 0.00 in0.0 mm 0.00 in0.0 mm
05:45 AM 22.2°F-5.4°C 18.7°F-7.4°C 86% Calm Calm -- 30.34 in1027.4 mb 0.00 in0.0 mm 0.00 in0.0 mm 0.00 in0.0 mm
05:50 AM 22.2°F-5.4°C 19.0°F-7.2°C 87% Calm Calm -- 30.33 in1027.1 mb 0.00 in0.0 mm 0.00 in0.0 mm 0.00 in0.0 mm
05:55 AM 22.2°F-5.4°C 19.0°F-7.2°C 87% Calm Calm -- 30.33 in1027.1 mb 0.00 in0.0 mm 0.00 in0.0 mm 0.00 in0.0 mm
06:00 AM 22.2°F-5.4°C 19.2°F-7.1°C 88% Calm Calm -- 30.34 in1027.4 mb 0.00 in0.0 mm 0.00 in0.0 mm 0.00 in0.0 mm
06:05 AM 22.3°F-5.4°C 19.2°F-7.1°C 88% Calm Calm -- 30.33 in1027.1 mb 0.00 in0.0 mm 0.00 in0.0 mm 0.00 in0.0 mm
06:10 AM 22.4°F-5.3°C 19.4°F-7.0°C 88% Calm Calm -- 30.32 in1026.8 mb 0.00 in0.0 mm 0.00 in0.0 mm 0.00 in0.0 mm
06:15 AM 22.6°F-5.2°C 19.9°F-6.7°C 89% Calm Calm -- 30.32 in1026.8 mb 0.00 in0.0 mm 0.00 in0.0 mm 0.00 in0.0 mm
06:20 AM 22.7°F-5.2°C 19.9°F-6.7°C 89% Calm Calm -- 30.32 in1026.8 mb 0.00 in0.0 mm 0.00 in0.0 mm 0.00 in0.0 mm
06:25 AM 22.8°F-5.1°C 20.3°F-6.5°C 90% Calm Calm -- 30.32 in1026.8 mb 0.00 in0.0 mm 0.00 in0.0 mm 0.00 in0.0 mm
06:30 AM 22.9°F-5.1°C 20.3°F-6.5°C 90% Calm Calm -- 30.31 in1026.4 mb 0.00 in0.0 mm 0.00 in0.0 mm 0.00 in0.0 mm
06:35 AM 22.9°F-5.1°C 20.3°F-6.5°C 90% Calm Calm -- 30.31 in1026.4 mb 0.00 in0.0 mm 0.00 in0.0 mm 0.00 in0.0 mm
06:40 AM 22.9°F-5.1°C 20.3°F-6.5°C 90% Calm Calm -- 30.31 in1026.4 mb 0.00 in0.0 mm 0.00 in0.0 mm 0.00 in0.0 mm
06:45 AM 23.0°F-5.0°C 20.5°F-6.4°C 90% Calm Calm -- 30.31 in1026.4 mb 0.00 in0.0 mm 0.00 in0.0 mm 0.00 in0.0 mm
06:50 AM 23.2°F-4.9°C 21.0°F-6.1°C 91% Calm Calm -- 30.31 in1026.4 mb 0.00 in0.0 mm 0.00 in0.0 mm 0.00 in0.0 mm
06:55 AM 23.2°F-4.9°C 21.0°F-6.1°C 91% Calm Calm -- 30.30 in1026.1 mb 0.00 in0.0 mm 0.00 in0.0 mm 0.00 in0.0 mm
07:00 AM 23.3°F-4.8°C 21.2°F-6.0°C 91% Calm Calm -- 30.31 in1026.4 mb 0.00 in0.0 mm 0.00 in0.0 mm 0.00 in0.0 mm
07:05 AM 23.4°F-4.8°C 21.2°F-6.0°C 91% Calm Calm -- 30.30 in1026.1 mb 0.00 in0.0 mm 0.00 in0.0 mm 0.00 in0.0 mm
07:10 AM 23.5°F-4.7°C 21.4°F-5.9°C 91% Calm Calm -- 30.30 in1026.1 mb 0.00 in0.0 mm 0.00 in0.0 mm 0.00 in0.0 mm
07:15 AM 23.7°F-4.6°C 21.6°F-5.8°C 91% Calm Calm -- 30.30 in1026.1 mb 0.00 in0.0 mm 0.00 in0.0 mm 0.00 in0.0 mm
07:20 AM 23.9°F-4.5°C 21.7°F-5.7°C 91% Calm Calm -- 30.31 in1026.4 mb 0.01 in0.3 mm 0.12 in3.0 mm 0.01 in0.3 mm
07:25 AM 24.0°F-4.4°C 21.9°F-5.6°C 91% Calm Calm -- 30.32 in1026.8 mb 0.01 in0.3 mm 0.00 in0.0 mm 0.01 in0.3 mm
07:30 AM 24.1°F-4.4°C 21.9°F-5.6°C 91% Calm Calm -- 30.32 in1026.8 mb 0.01 in0.3 mm 0.00 in0.0 mm 0.01 in0.3 mm
07:35 AM 24.2°F-4.3°C 22.3°F-5.4°C 92% Calm Calm -- 30.32 in1026.8 mb 0.01 in0.3 mm 0.00 in0.0 mm 0.01 in0.3 mm
07:40 AM 24.3°F-4.3°C 22.3°F-5.4°C 92% Calm Calm -- 30.32 in1026.8 mb 0.01 in0.3 mm 0.00 in0.0 mm 0.01 in0.3 mm
07:45 AM 24.4°F-4.2°C 22.5°F-5.3°C 92% Calm Calm -- 30.32 in1026.8 mb 0.01 in0.3 mm 0.00 in0.0 mm 0.01 in0.3 mm
07:50 AM 24.6°F-4.1°C 22.6°F-5.2°C 92% Calm Calm -- 30.31 in1026.4 mb 0.01 in0.3 mm 0.00 in0.0 mm 0.01 in0.3 mm
07:55 AM 24.7°F-4.1°C 22.6°F-5.2°C 92% Calm Calm -- 30.31 in1026.4 mb 0.01 in0.3 mm 0.00 in0.0 mm 0.01 in0.3 mm
08:00 AM 24.8°F-4.0°C 22.8°F-5.1°C 92% Calm Calm -- 30.30 in1026.1 mb 0.01 in0.3 mm 0.00 in0.0 mm 0.01 in0.3 mm
08:05 AM 24.9°F-3.9°C 23.0°F-5.0°C 92% Calm Calm -- 30.30 in1026.1 mb 0.01 in0.3 mm 0.00 in0.0 mm 0.01 in0.3 mm
08:10 AM 24.9°F-3.9°C 23.0°F-5.0°C 92% Calm Calm -- 30.30 in1026.1 mb 0.01 in0.3 mm 0.00 in0.0 mm 0.01 in0.3 mm
08:15 AM 25.0°F-3.9°C 23.0°F-5.0°C 92% Calm Calm -- 30.32 in1026.8 mb 0.01 in0.3 mm 0.00 in0.0 mm 0.01 in0.3 mm
08:20 AM 25.0°F-3.9°C 23.0°F-5.0°C 92% Calm Calm -- 30.33 in1027.1 mb 0.00 in0.0 mm 0.00 in0.0 mm 0.01 in0.3 mm
08:25 AM 25.1°F-3.8°C 23.2°F-4.9°C 92% Calm Calm -- 30.33 in1027.1 mb 0.00 in0.0 mm 0.00 in0.0 mm 0.01 in0.3 mm
08:30 AM 25.2°F-3.8°C 23.2°F-4.9°C 92% Calm Calm -- 30.32 in1026.8 mb 0.00 in0.0 mm 0.00 in0.0 mm 0.01 in0.3 mm
08:35 AM 25.2°F-3.8°C 23.2°F-4.9°C 92% Calm Calm -- 30.31 in1026.4 mb 0.00 in0.0 mm 0.00 in0.0 mm 0.01 in0.3 mm
08:40 AM 25.4°F-3.7°C 23.4°F-4.8°C 92% Calm Calm -- 30.30 in1026.1 mb 0.00 in0.0 mm 0.00 in0.0 mm 0.01 in0.3 mm
08:45 AM 25.5°F-3.6°C 23.7°F-4.6°C 93% Calm Calm -- 30.30 in1026.1 mb 0.00 in0.0 mm 0.00 in0.0 mm 0.01 in0.3 mm
08:50 AM 25.6°F-3.6°C 23.7°F-4.6°C 93% Calm Calm -- 30.30 in1026.1 mb 0.00 in0.0 mm 0.00 in0.0 mm 0.01 in0.3 mm
08:55 AM 25.7°F-3.5°C 23.9°F-4.5°C 93% Calm Calm -- 30.29 in1025.7 mb 0.00 in0.0 mm 0.00 in0.0 mm 0.01 in0.3 mm
09:00 AM 25.8°F-3.4°C 24.1°F-4.4°C 93% Calm Calm -- 30.28 in1025.4 mb 0.00 in0.0 mm 0.00 in0.0 mm 0.01 in0.3 mm
09:05 AM 25.9°F-3.4°C 24.1°F-4.4°C 93% Calm Calm -- 30.28 in1025.4 mb 0.00 in0.0 mm 0.00 in0.0 mm 0.01 in0.3 mm
09:10 AM 25.9°F-3.4°C 24.1°F-4.4°C 93% Calm Calm -- 30.28 in1025.4 mb 0.00 in0.0 mm 0.00 in0.0 mm 0.01 in0.3 mm
09:15 AM 26.0°F-3.3°C 24.3°F-4.3°C 93% Calm Calm -- 30.29 in1025.7 mb 0.00 in0.0 mm 0.00 in0.0 mm 0.01 in0.3 mm
09:20 AM 26.0°F-3.3°C 24.3°F-4.3°C 93% Calm Calm -- 30.30 in1026.1 mb 0.00 in0.0 mm 0.00 in0.0 mm 0.01 in0.3 mm
09:25 AM 26.0°F-3.3°C 24.3°F-4.3°C 93% Calm Calm -- 30.29 in1025.7 mb 0.00 in0.0 mm 0.00 in0.0 mm 0.01 in0.3 mm
09:30 AM 26.1°F-3.3°C 24.3°F-4.3°C 93% Calm Calm -- 30.29 in1025.7 mb 0.00 in0.0 mm 0.00 in0.0 mm 0.01 in0.3 mm
09:35 AM 26.2°F-3.2°C 24.4°F-4.2°C 93% Calm Calm -- 30.28 in1025.4 mb 0.00 in0.0 mm 0.00 in0.0 mm 0.01 in0.3 mm
09:40 AM 26.3°F-3.2°C 24.4°F-4.2°C 93% Calm Calm 6.0 mph9.7 kmh 30.27 in1025.1 mb 0.00 in0.0 mm 0.00 in0.0 mm 0.01 in0.3 mm
09:45 AM 26.4°F-3.1°C 24.6°F-4.1°C 93% 1.0 mph ESE1.6 kmh ESE -- 30.27 in1025.1 mb 0.00 in0.0 mm 0.00 in0.0 mm 0.01 in0.3 mm
09:50 AM 26.5°F-3.1°C 24.6°F-4.1°C 93% Calm Calm -- 30.27 in1025.1 mb 0.00 in0.0 mm 0.00 in0.0 mm 0.01 in0.3 mm
09:55 AM 26.6°F-3.0°C 24.8°F-4.0°C 93% Calm Calm -- 30.27 in1025.1 mb 0.00 in0.0 mm 0.00 in0.0 mm 0.01 in0.3 mm
10:00 AM 26.8°F-2.9°C 25.0°F-3.9°C 93% 2.0 mph ESE3.2 kmh ESE -- 30.27 in1025.1 mb 0.00 in0.0 mm 0.00 in0.0 mm 0.01 in0.3 mm
10:05 AM 26.9°F-2.8°C 25.2°F-3.8°C 93% Calm Calm 5.0 mph8.0 kmh 30.27 in1025.1 mb 0.00 in0.0 mm 0.00 in0.0 mm 0.01 in0.3 mm
10:10 AM 27.1°F-2.7°C 25.3°F-3.7°C 93% Calm Calm -- 30.27 in1025.1 mb 0.00 in0.0 mm 0.00 in0.0 mm 0.01 in0.3 mm
10:15 AM 27.2°F-2.7°C 25.7°F-3.5°C 94% Calm Calm -- 30.27 in1025.1 mb 0.00 in0.0 mm 0.00 in0.0 mm 0.01 in0.3 mm
10:20 AM 27.3°F-2.6°C 25.9°F-3.4°C 94% Calm Calm -- 30.27 in1025.1 mb 0.00 in0.0 mm 0.00 in0.0 mm 0.01 in0.3 mm
10:25 AM 27.5°F-2.5°C 25.7°F-3.5°C 93% Calm Calm -- 30.27 in1025.1 mb 0.00 in0.0 mm 0.00 in0.0 mm 0.01 in0.3 mm
10:30 AM 27.5°F-2.5°C 25.7°F-3.5°C 93% Calm Calm -- 30.27 in1025.1 mb 0.00 in0.0 mm 0.00 in0.0 mm 0.01 in0.3 mm
10:35 AM 27.7°F-2.4°C 25.9°F-3.4°C 93% Calm Calm -- 30.27 in1025.1 mb 0.00 in0.0 mm 0.00 in0.0 mm 0.01 in0.3 mm
10:40 AM 27.8°F-2.3°C 26.4°F-3.1°C 94% Calm Calm -- 30.27 in1025.1 mb 0.00 in0.0 mm 0.00 in0.0 mm 0.01 in0.3 mm
10:45 AM 28.0°F-2.2°C 26.6°F-3.0°C 94% Calm Calm -- 30.27 in1025.1 mb 0.00 in0.0 mm 0.00 in0.0 mm 0.01 in0.3 mm
10:50 AM 28.2°F-2.1°C 26.8°F-2.9°C 94% Calm Calm -- 30.27 in1025.1 mb 0.00 in0.0 mm 0.00 in0.0 mm 0.01 in0.3 mm
10:55 AM 28.3°F-2.1°C 26.8°F-2.9°C 94% Calm Calm -- 30.27 in1025.1 mb 0.00 in0.0 mm 0.00 in0.0 mm 0.01 in0.3 mm
11:00 AM 28.4°F-2.0°C 27.0°F-2.8°C 94% Calm Calm -- 30.26 in1024.7 mb 0.00 in0.0 mm 0.00 in0.0 mm 0.01 in0.3 mm
11:05 AM 28.5°F-1.9°C 27.1°F-2.7°C 94% Calm Calm -- 30.26 in1024.7 mb 0.00 in0.0 mm 0.00 in0.0 mm 0.01 in0.3 mm
11:10 AM 28.5°F-1.9°C 27.1°F-2.7°C 94% Calm Calm -- 30.25 in1024.4 mb 0.00 in0.0 mm 0.00 in0.0 mm 0.01 in0.3 mm
11:15 AM 28.6°F-1.9°C 27.1°F-2.7°C 94% Calm Calm -- 30.25 in1024.4 mb 0.00 in0.0 mm 0.00 in0.0 mm 0.01 in0.3 mm
11:20 AM 28.7°F-1.8°C 27.3°F-2.6°C 94% Calm Calm -- 30.25 in1024.4 mb 0.00 in0.0 mm 0.00 in0.0 mm 0.01 in0.3 mm
11:25 AM 28.7°F-1.8°C 27.3°F-2.6°C 94% Calm Calm -- 30.25 in1024.4 mb 0.01 in0.3 mm 0.12 in3.0 mm 0.02 in0.5 mm
11:30 AM 28.8°F-1.8°C 27.3°F-2.6°C 94% Calm Calm -- 30.24 in1024.0 mb 0.01 in0.3 mm 0.00 in0.0 mm 0.02 in0.5 mm
11:35 AM 28.9°F-1.7°C 27.5°F-2.5°C 94% Calm Calm -- 30.24 in1024.0 mb 0.02 in0.5 mm 0.12 in3.0 mm 0.03 in0.8 mm
11:40 AM 28.9°F-1.7°C 27.5°F-2.5°C 94% Calm Calm -- 30.24 in1024.0 mb 0.02 in0.5 mm 0.00 in0.0 mm 0.03 in0.8 mm
11:45 AM 28.9°F-1.7°C 27.5°F-2.5°C 94% Calm Calm -- 30.24 in1024.0 mb 0.02 in0.5 mm 0.00 in0.0 mm 0.03 in0.8 mm
11:50 AM 28.9°F-1.7°C 27.5°F-2.5°C 94% Calm Calm -- 30.24 in1024.0 mb 0.03 in0.8 mm 0.12 in3.0 mm 0.04 in1.0 mm
11:55 AM 28.9°F-1.7°C 27.5°F-2.5°C 94% Calm Calm -- 30.24 in1024.0 mb 0.03 in0.8 mm 0.00 in0.0 mm 0.04 in1.0 mm
12:00 PM 28.9°F-1.7°C 27.5°F-2.5°C 94% Calm Calm -- 30.24 in1024.0 mb 0.04 in1.0 mm 0.01 in0.3 mm 0.05 in1.3 mm
12:05 PM 28.9°F-1.7°C 27.5°F-2.5°C 94% Calm Calm -- 30.23 in1023.7 mb 0.04 in1.0 mm 0.00 in0.0 mm 0.05 in1.3 mm
12:10 PM 28.9°F-1.7°C 27.5°F-2.5°C 94% Calm Calm -- 30.23 in1023.7 mb 0.04 in1.0 mm 0.00 in0.0 mm 0.05 in1.3 mm
12:15 PM 29.0°F-1.7°C 27.5°F-2.5°C 94% Calm Calm -- 30.23 in1023.7 mb 0.04 in1.0 mm 0.00 in0.0 mm 0.05 in1.3 mm
12:20 PM 29.0°F-1.7°C 27.5°F-2.5°C 94% Calm Calm -- 30.23 in1023.7 mb 0.04 in1.0 mm 0.00 in0.0 mm 0.05 in1.3 mm
12:25 PM 29.0°F-1.7°C 27.5°F-2.5°C 94% Calm Calm -- 30.22 in1023.4 mb 0.03 in0.8 mm 0.00 in0.0 mm 0.05 in1.3 mm
12:30 PM 29.1°F-1.6°C 27.7°F-2.4°C 94% Calm Calm -- 30.21 in1023.0 mb 0.04 in1.0 mm 0.12 in3.0 mm 0.06 in1.5 mm
12:35 PM 29.1°F-1.6°C 27.7°F-2.4°C 94% Calm Calm -- 30.21 in1023.0 mb 0.04 in1.0 mm 0.00 in0.0 mm 0.07 in1.8 mm
12:40 PM 29.1°F-1.6°C 27.7°F-2.4°C 94% Calm Calm -- 30.21 in1023.0 mb 0.04 in1.0 mm 0.00 in0.0 mm 0.07 in1.8 mm
12:45 PM 29.2°F-1.6°C 27.7°F-2.4°C 94% Calm Calm -- 30.21 in1023.0 mb 0.04 in1.0 mm 0.00 in0.0 mm 0.07 in1.8 mm
12:50 PM 29.2°F-1.6°C 27.7°F-2.4°C 94% Calm Calm -- 30.20 in1022.7 mb 0.03 in0.8 mm 0.00 in0.0 mm 0.07 in1.8 mm
12:55 PM 29.2°F-1.6°C 27.7°F-2.4°C 94% Calm Calm -- 30.21 in1023.0 mb 0.03 in0.8 mm 0.00 in0.0 mm 0.07 in1.8 mm
01:00 PM 29.2°F-1.6°C 27.7°F-2.4°C 94% Calm Calm -- 30.21 in1023.0 mb 0.02 in0.5 mm 0.00 in0.0 mm 0.07 in1.8 mm
01:05 PM 29.2°F-1.6°C 27.7°F-2.4°C 94% Calm Calm -- 30.19 in1022.4 mb 0.02 in0.5 mm 0.00 in0.0 mm 0.07 in1.8 mm
01:10 PM 29.3°F-1.5°C 27.9°F-2.3°C 94% Calm Calm -- 30.19 in1022.4 mb 0.02 in0.5 mm 0.00 in0.0 mm 0.07 in1.8 mm
01:15 PM 29.3°F-1.5°C 27.9°F-2.3°C 94% Calm Calm -- 30.18 in1022.0 mb 0.03 in0.8 mm 0.12 in3.0 mm 0.08 in2.0 mm
01:20 PM 29.4°F-1.4°C 28.0°F-2.2°C 94% Calm Calm -- 30.18 in1022.0 mb 0.03 in0.8 mm 0.00 in0.0 mm 0.08 in2.0 mm
01:25 PM 29.4°F-1.4°C 28.0°F-2.2°C 94% Calm Calm -- 30.18 in1022.0 mb 0.04 in1.0 mm 0.12 in3.0 mm 0.09 in2.3 mm
01:30 PM 29.5°F-1.4°C 28.0°F-2.2°C 94% Calm Calm -- 30.18 in1022.0 mb 0.03 in0.8 mm 0.00 in0.0 mm 0.09 in2.3 mm
01:35 PM 29.5°F-1.4°C 28.0°F-2.2°C 94% Calm Calm -- 30.18 in1022.0 mb 0.03 in0.8 mm 0.00 in0.0 mm 0.09 in2.3 mm
01:40 PM 29.5°F-1.4°C 28.0°F-2.2°C 94% Calm Calm -- 30.18 in1022.0 mb 0.02 in0.5 mm 0.00 in0.0 mm 0.09 in2.3 mm
01:45 PM 29.6°F-1.3°C 28.2°F-2.1°C 94% Calm Calm -- 30.18 in1022.0 mb 0.02 in0.5 mm 0.00 in0.0 mm 0.09 in2.3 mm
01:50 PM 29.6°F-1.3°C 28.2°F-2.1°C 94% Calm Calm -- 30.17 in1021.7 mb 0.02 in0.5 mm 0.00 in0.0 mm 0.09 in2.3 mm
01:55 PM 29.6°F-1.3°C 28.2°F-2.1°C 94% Calm Calm -- 30.17 in1021.7 mb 0.02 in0.5 mm 0.00 in0.0 mm 0.09 in2.3 mm
02:00 PM 29.6°F-1.3°C 28.2°F-2.1°C 94% Calm Calm -- 30.17 in1021.7 mb 0.02 in0.5 mm 0.00 in0.0 mm 0.09 in2.3 mm
02:05 PM 29.6°F-1.3°C 28.2°F-2.1°C 94% Calm Calm -- 30.17 in1021.7 mb 0.02 in0.5 mm 0.00 in0.0 mm 0.09 in2.3 mm
02:10 PM 29.7°F-1.3°C 28.2°F-2.1°C 94% Calm Calm -- 30.17 in1021.7 mb 0.02 in0.5 mm 0.00 in0.0 mm 0.09 in2.3 mm
02:15 PM 29.7°F-1.3°C 28.2°F-2.1°C 94% Calm Calm -- 30.17 in1021.7 mb 0.01 in0.3 mm 0.00 in0.0 mm 0.09 in2.3 mm
02:20 PM 29.7°F-1.3°C 28.2°F-2.1°C 94% Calm Calm -- 30.17 in1021.7 mb 0.01 in0.3 mm 0.00 in0.0 mm 0.09 in2.3 mm
02:25 PM 29.7°F-1.3°C 28.2°F-2.1°C 94% Calm Calm -- 30.16 in1021.3 mb 0.00 in0.0 mm 0.00 in0.0 mm 0.09 in2.3 mm
02:30 PM 29.8°F-1.2°C 28.4°F-2.0°C 94% Calm Calm -- 30.16 in1021.3 mb 0.01 in0.3 mm 0.12 in3.0 mm 0.10 in2.5 mm
02:35 PM 29.9°F-1.2°C 28.4°F-2.0°C 94% Calm Calm -- 30.15 in1021.0 mb 0.01 in0.3 mm 0.00 in0.0 mm 0.10 in2.5 mm
02:40 PM 29.9°F-1.2°C 28.4°F-2.0°C 94% Calm Calm -- 30.16 in1021.3 mb 0.01 in0.3 mm 0.00 in0.0 mm 0.10 in2.5 mm
02:45 PM 30.0°F-1.1°C 28.6°F-1.9°C 94% Calm Calm -- 30.16 in1021.3 mb 0.01 in0.3 mm 0.00 in0.0 mm 0.10 in2.5 mm
02:50 PM 30.0°F-1.1°C 28.6°F-1.9°C 94% Calm Calm -- 30.15 in1021.0 mb 0.01 in0.3 mm 0.00 in0.0 mm 0.10 in2.5 mm
02:55 PM 30.1°F-1.1°C 28.6°F-1.9°C 94% Calm Calm -- 30.15 in1021.0 mb 0.01 in0.3 mm 0.00 in0.0 mm 0.10 in2.5 mm
03:00 PM 30.2°F-1.0°C 28.8°F-1.8°C 94% Calm Calm -- 30.16 in1021.3 mb 0.01 in0.3 mm 0.00 in0.0 mm 0.10 in2.5 mm
03:05 PM 30.3°F-0.9°C 28.9°F-1.7°C 94% Calm Calm -- 30.16 in1021.3 mb 0.01 in0.3 mm 0.00 in0.0 mm 0.10 in2.5 mm
03:10 PM 30.3°F-0.9°C 28.9°F-1.7°C 94% Calm Calm -- 30.16 in1021.3 mb 0.01 in0.3 mm 0.00 in0.0 mm 0.10 in2.5 mm
03:15 PM 30.4°F-0.9°C 28.9°F-1.7°C 94% Calm Calm -- 30.16 in1021.3 mb 0.01 in0.3 mm 0.00 in0.0 mm 0.10 in2.5 mm
03:20 PM 30.4°F-0.9°C 28.9°F-1.7°C 94% Calm Calm -- 30.16 in1021.3 mb 0.01 in0.3 mm 0.00 in0.0 mm 0.10 in2.5 mm
03:25 PM 30.4°F-0.9°C 28.9°F-1.7°C 94% Calm Calm -- 30.16 in1021.3 mb 0.01 in0.3 mm 0.00 in0.0 mm 0.10 in2.5 mm
03:30 PM 30.5°F-0.8°C 29.1°F-1.6°C 94% Calm Calm -- 30.16 in1021.3 mb 0.00 in0.0 mm 0.00 in0.0 mm 0.10 in2.5 mm
03:35 PM 30.5°F-0.8°C 29.1°F-1.6°C 94% Calm Calm -- 30.16 in1021.3 mb 0.01 in0.3 mm 0.12 in3.0 mm 0.11 in2.8 mm
03:40 PM 30.5°F-0.8°C 29.1°F-1.6°C 94% Calm Calm -- 30.16 in1021.3 mb 0.01 in0.3 mm 0.00 in0.0 mm 0.11 in2.8 mm
03:45 PM 30.6°F-0.8°C 29.1°F-1.6°C 94% Calm Calm -- 30.17 in1021.7 mb 0.01 in0.3 mm 0.00 in0.0 mm 0.11 in2.8 mm
03:50 PM 30.6°F-0.8°C 29.1°F-1.6°C 94% Calm Calm -- 30.16 in1021.3 mb 0.01 in0.3 mm 0.00 in0.0 mm 0.11 in2.8 mm
03:55 PM 30.6°F-0.8°C 29.1°F-1.6°C 94% Calm Calm -- 30.16 in1021.3 mb 0.01 in0.3 mm 0.00 in0.0 mm 0.11 in2.8 mm
04:00 PM 30.7°F-0.7°C 29.3°F-1.5°C 94% Calm Calm -- 30.16 in1021.3 mb 0.01 in0.3 mm 0.00 in0.0 mm 0.11 in2.8 mm
04:05 PM 30.7°F-0.7°C 29.3°F-1.5°C 94% Calm Calm -- 30.16 in1021.3 mb 0.01 in0.3 mm 0.00 in0.0 mm 0.11 in2.8 mm
04:10 PM 30.8°F-0.7°C 29.3°F-1.5°C 94% Calm Calm -- 30.16 in1021.3 mb 0.01 in0.3 mm 0.00 in0.0 mm 0.11 in2.8 mm
04:15 PM 30.8°F-0.7°C 29.3°F-1.5°C 94% Calm Calm -- 30.16 in1021.3 mb 0.01 in0.3 mm 0.00 in0.0 mm 0.11 in2.8 mm
04:20 PM 30.8°F-0.7°C 29.3°F-1.5°C 94% Calm Calm -- 30.16 in1021.3 mb 0.01 in0.3 mm 0.00 in0.0 mm 0.11 in2.8 mm
04:25 PM 30.9°F-0.6°C 29.5°F-1.4°C 94% Calm Calm -- 30.16 in1021.3 mb 0.02 in0.5 mm 0.12 in3.0 mm 0.12 in3.0 mm
04:30 PM 30.9°F-0.6°C 29.5°F-1.4°C 94% Calm Calm -- 30.16 in1021.3 mb 0.02 in0.5 mm 0.00 in0.0 mm 0.12 in3.0 mm
04:35 PM 30.9°F-0.6°C 29.5°F-1.4°C 94% Calm Calm -- 30.15 in1021.0 mb 0.01 in0.3 mm 0.00 in0.0 mm 0.12 in3.0 mm
04:40 PM 30.9°F-0.6°C 29.5°F-1.4°C 94% Calm Calm -- 30.15 in1021.0 mb 0.01 in0.3 mm 0.00 in0.0 mm 0.12 in3.0 mm
04:45 PM 30.9°F-0.6°C 29.5°F-1.4°C 94% Calm Calm -- 30.15 in1021.0 mb 0.01 in0.3 mm 0.00 in0.0 mm 0.12 in3.0 mm
04:50 PM 30.9°F-0.6°C 29.5°F-1.4°C 94% Calm Calm -- 30.15 in1021.0 mb 0.01 in0.3 mm 0.00 in0.0 mm 0.12 in3.0 mm
04:55 PM 30.9°F-0.6°C 29.5°F-1.4°C 94% Calm Calm -- 30.15 in1021.0 mb 0.01 in0.3 mm 0.00 in0.0 mm 0.12 in3.0 mm
05:00 PM 30.9°F-0.6°C 29.5°F-1.4°C 94% Calm Calm -- 30.15 in1021.0 mb 0.01 in0.3 mm 0.00 in0.0 mm 0.12 in3.0 mm
05:05 PM 30.9°F-0.6°C 29.5°F-1.4°C 94% Calm Calm -- 30.16 in1021.3 mb 0.01 in0.3 mm 0.00 in0.0 mm 0.12 in3.0 mm
05:10 PM 30.8°F-0.7°C 29.3°F-1.5°C 94% Calm Calm -- 30.16 in1021.3 mb 0.01 in0.3 mm 0.00 in0.0 mm 0.12 in3.0 mm
05:15 PM 30.8°F-0.7°C 29.3°F-1.5°C 94% Calm Calm -- 30.15 in1021.0 mb 0.01 in0.3 mm 0.00 in0.0 mm 0.12 in3.0 mm
05:20 PM 30.8°F-0.7°C 29.3°F-1.5°C 94% Calm Calm -- 30.15 in1021.0 mb 0.01 in0.3 mm 0.00 in0.0 mm 0.12 in3.0 mm
05:25 PM 30.8°F-0.7°C 29.5°F-1.4°C 95% Calm Calm -- 30.16 in1021.3 mb 0.00 in0.0 mm 0.00 in0.0 mm 0.12 in3.0 mm
05:30 PM 30.8°F-0.7°C 29.5°F-1.4°C 95% Calm Calm -- 30.15 in1021.0 mb 0.00 in0.0 mm 0.00 in0.0 mm 0.12 in3.0 mm
05:35 PM 30.7°F-0.7°C 29.5°F-1.4°C 95% Calm Calm -- 30.15 in1021.0 mb 0.00 in0.0 mm 0.00 in0.0 mm 0.12 in3.0 mm
05:40 PM 30.7°F-0.7°C 29.5°F-1.4°C 95% Calm Calm -- 30.15 in1021.0 mb 0.00 in0.0 mm 0.00 in0.0 mm 0.12 in3.0 mm
05:45 PM 30.7°F-0.7°C 29.5°F-1.4°C 95% Calm Calm -- 30.15 in1021.0 mb 0.00 in0.0 mm 0.00 in0.0 mm 0.12 in3.0 mm
05:50 PM 30.7°F-0.7°C 29.5°F-1.4°C 95% Calm Calm -- 30.15 in1021.0 mb 0.00 in0.0 mm 0.00 in0.0 mm 0.12 in3.0 mm
05:55 PM 30.7°F-0.7°C 29.5°F-1.4°C 95% Calm Calm -- 30.15 in1021.0 mb 0.00 in0.0 mm 0.00 in0.0 mm 0.12 in3.0 mm
06:00 PM 30.7°F-0.7°C 29.5°F-1.4°C 95% Calm Calm -- 30.15 in1021.0 mb 0.00 in0.0 mm 0.00 in0.0 mm 0.12 in3.0 mm
06:05 PM 30.7°F-0.7°C 29.5°F-1.4°C 95% Calm Calm -- 30.15 in1021.0 mb 0.00 in0.0 mm 0.00 in0.0 mm 0.12 in3.0 mm
06:10 PM 30.7°F-0.7°C 29.5°F-1.4°C 95% Calm Calm -- 30.15 in1021.0 mb 0.00 in0.0 mm 0.00 in0.0 mm 0.12 in3.0 mm
06:15 PM 30.6°F-0.8°C 29.3°F-1.5°C 95% Calm Calm -- 30.15 in1021.0 mb 0.00 in0.0 mm 0.00 in0.0 mm 0.12 in3.0 mm
06:20 PM 30.7°F-0.7°C 29.5°F-1.4°C 95% Calm Calm -- 30.14 in1020.7 mb 0.00 in0.0 mm 0.00 in0.0 mm 0.12 in3.0 mm
06:25 PM 30.7°F-0.7°C 29.5°F-1.4°C 95% Calm Calm -- 30.15 in1021.0 mb 0.00 in0.0 mm 0.00 in0.0 mm 0.12 in3.0 mm
06:30 PM 30.7°F-0.7°C 29.5°F-1.4°C 95% Calm Calm -- 30.16 in1021.3 mb 0.00 in0.0 mm 0.00 in0.0 mm 0.12 in3.0 mm
06:35 PM 30.7°F-0.7°C 29.5°F-1.4°C 95% Calm Calm -- 30.15 in1021.0 mb 0.00 in0.0 mm 0.00 in0.0 mm 0.12 in3.0 mm
06:40 PM 30.6°F-0.8°C 29.3°F-1.5°C 95% Calm Calm -- 30.15 in1021.0 mb 0.00 in0.0 mm 0.00 in0.0 mm 0.12 in3.0 mm
06:45 PM 30.6°F-0.8°C 29.3°F-1.5°C 95% Calm Calm -- 30.16 in1021.3 mb 0.00 in0.0 mm 0.00 in0.0 mm 0.12 in3.0 mm
06:50 PM 30.5°F-0.8°C 29.1°F-1.6°C 94% Calm Calm -- 30.16 in1021.3 mb 0.00 in0.0 mm 0.00 in0.0 mm 0.12 in3.0 mm
06:55 PM 30.5°F-0.8°C 29.1°F-1.6°C 94% Calm Calm -- 30.16 in1021.3 mb 0.00 in0.0 mm 0.00 in0.0 mm 0.12 in3.0 mm
07:00 PM 30.5°F-0.8°C 29.1°F-1.6°C 94% Calm Calm -- 30.16 in1021.3 mb 0.00 in0.0 mm 0.00 in0.0 mm 0.12 in3.0 mm
07:05 PM 30.5°F-0.8°C 29.1°F-1.6°C 94% Calm Calm -- 30.16 in1021.3 mb 0.00 in0.0 mm 0.00 in0.0 mm 0.12 in3.0 mm
07:10 PM 30.5°F-0.8°C 29.1°F-1.6°C 94% Calm Calm -- 30.17 in1021.7 mb 0.00 in0.0 mm 0.00 in0.0 mm 0.12 in3.0 mm
07:15 PM 30.5°F-0.8°C 29.1°F-1.6°C 94% Calm Calm -- 30.17 in1021.7 mb 0.00 in0.0 mm 0.00 in0.0 mm 0.12 in3.0 mm
07:20 PM 30.5°F-0.8°C 29.1°F-1.6°C 94% Calm Calm -- 30.17 in1021.7 mb 0.00 in0.0 mm 0.00 in0.0 mm 0.12 in3.0 mm
07:25 PM 30.6°F-0.8°C 29.3°F-1.5°C 95% Calm Calm -- 30.17 in1021.7 mb 0.00 in0.0 mm 0.00 in0.0 mm 0.12 in3.0 mm
07:30 PM 30.6°F-0.8°C 29.3°F-1.5°C 95% Calm Calm -- 30.17 in1021.7 mb 0.00 in0.0 mm 0.00 in0.0 mm 0.12 in3.0 mm
07:35 PM 30.6°F-0.8°C 29.3°F-1.5°C 95% Calm Calm -- 30.16 in1021.3 mb 0.00 in0.0 mm 0.00 in0.0 mm 0.12 in3.0 mm
07:40 PM 30.6°F-0.8°C 29.3°F-1.5°C 95% Calm Calm -- 30.16 in1021.3 mb 0.00 in0.0 mm 0.00 in0.0 mm 0.12 in3.0 mm
07:45 PM 30.6°F-0.8°C 29.3°F-1.5°C 95% Calm Calm -- 30.17 in1021.7 mb 0.00 in0.0 mm 0.00 in0.0 mm 0.12 in3.0 mm
07:50 PM 30.6°F-0.8°C 29.3°F-1.5°C 95% Calm Calm -- 30.16 in1021.3 mb 0.00 in0.0 mm 0.00 in0.0 mm 0.12 in3.0 mm
07:55 PM 30.7°F-0.7°C 29.5°F-1.4°C 95% Calm Calm -- 30.17 in1021.7 mb 0.00 in0.0 mm 0.00 in0.0 mm 0.12 in3.0 mm
08:00 PM 30.7°F-0.7°C 29.5°F-1.4°C 95% Calm Calm -- 30.16 in1021.3 mb 0.00 in0.0 mm 0.00 in0.0 mm 0.12 in3.0 mm
08:05 PM 30.8°F-0.7°C 29.5°F-1.4°C 95% Calm Calm -- 30.16 in1021.3 mb 0.00 in0.0 mm 0.00 in0.0 mm 0.12 in3.0 mm
08:10 PM 30.8°F-0.7°C 29.5°F-1.4°C 95% Calm Calm -- 30.16 in1021.3 mb 0.00 in0.0 mm 0.00 in0.0 mm 0.12 in3.0 mm
08:15 PM 30.8°F-0.7°C 29.5°F-1.4°C 95% Calm Calm -- 30.15 in1021.0 mb 0.00 in0.0 mm 0.00 in0.0 mm 0.12 in3.0 mm
08:20 PM 30.7°F-0.7°C 29.5°F-1.4°C 95% Calm Calm -- 30.16 in1021.3 mb 0.00 in0.0 mm 0.00 in0.0 mm 0.12 in3.0 mm
08:25 PM 30.6°F-0.8°C 29.3°F-1.5°C 95% Calm Calm -- 30.15 in1021.0 mb 0.00 in0.0 mm 0.00 in0.0 mm 0.12 in3.0 mm
08:30 PM 30.6°F-0.8°C 29.3°F-1.5°C 95% Calm Calm -- 30.16 in1021.3 mb 0.00 in0.0 mm 0.00 in0.0 mm 0.12 in3.0 mm
08:35 PM 30.6°F-0.8°C 29.3°F-1.5°C 95% Calm Calm -- 30.16 in1021.3 mb 0.00 in0.0 mm 0.00 in0.0 mm 0.12 in3.0 mm
08:40 PM 30.6°F-0.8°C 29.3°F-1.5°C 95% Calm Calm -- 30.16 in1021.3 mb 0.00 in0.0 mm 0.00 in0.0 mm 0.12 in3.0 mm
08:45 PM 30.6°F-0.8°C 29.3°F-1.5°C 95% Calm Calm -- 30.16 in1021.3 mb 0.00 in0.0 mm 0.00 in0.0 mm 0.12 in3.0 mm
08:50 PM 30.6°F-0.8°C 29.3°F-1.5°C 95% Calm Calm -- 30.16 in1021.3 mb 0.00 in0.0 mm 0.00 in0.0 mm 0.12 in3.0 mm
08:55 PM 30.6°F-0.8°C 29.3°F-1.5°C 95% Calm Calm -- 30.15 in1021.0 mb 0.00 in0.0 mm 0.00 in0.0 mm 0.12 in3.0 mm
09:00 PM 30.6°F-0.8°C 29.3°F-1.5°C 95% Calm Calm -- 30.15 in1021.0 mb 0.00 in0.0 mm 0.00 in0.0 mm 0.12 in3.0 mm
09:05 PM 30.6°F-0.8°C 29.3°F-1.5°C 95% Calm Calm -- 30.16 in1021.3 mb 0.00 in0.0 mm 0.00 in0.0 mm 0.12 in3.0 mm
09:10 PM 30.5°F-0.8°C 29.3°F-1.5°C 95% Calm Calm -- 30.16 in1021.3 mb 0.00 in0.0 mm 0.00 in0.0 mm 0.12 in3.0 mm
09:15 PM 30.5°F-0.8°C 29.3°F-1.5°C 95% Calm Calm -- 30.15 in1021.0 mb 0.00 in0.0 mm 0.00 in0.0 mm 0.12 in3.0 mm
09:20 PM 30.5°F-0.8°C 29.3°F-1.5°C 95% Calm Calm -- 30.15 in1021.0 mb 0.00 in0.0 mm 0.00 in0.0 mm 0.12 in3.0 mm
09:25 PM 30.4°F-0.9°C 29.1°F-1.6°C 95% Calm Calm -- 30.15 in1021.0 mb 0.00 in0.0 mm 0.00 in0.0 mm 0.12 in3.0 mm
09:30 PM 30.4°F-0.9°C 29.1°F-1.6°C 95% Calm Calm -- 30.15 in1021.0 mb 0.00 in0.0 mm 0.00 in0.0 mm 0.12 in3.0 mm
09:35 PM 30.3°F-0.9°C 29.1°F-1.6°C 95% Calm Calm -- 30.15 in1021.0 mb 0.00 in0.0 mm 0.00 in0.0 mm 0.12 in3.0 mm
09:40 PM 30.3°F-0.9°C 29.1°F-1.6°C 95% Calm Calm -- 30.14 in1020.7 mb 0.00 in0.0 mm 0.00 in0.0 mm 0.12 in3.0 mm
09:46 PM 30.3°F-0.9°C 29.1°F-1.6°C 95% Calm Calm -- 30.14 in1020.7 mb 0.00 in0.0 mm 0.00 in0.0 mm 0.12 in3.0 mm
09:50 PM 30.3°F-0.9°C 29.1°F-1.6°C 95% Calm Calm -- 30.14 in1020.7 mb 0.00 in0.0 mm 0.00 in0.0 mm 0.12 in3.0 mm
09:55 PM 30.3°F-0.9°C 29.1°F-1.6°C 95% Calm Calm -- 30.14 in1020.7 mb 0.00 in0.0 mm 0.00 in0.0 mm 0.12 in3.0 mm
10:00 PM 30.3°F-0.9°C 29.1°F-1.6°C 95% Calm Calm -- 30.14 in1020.7 mb 0.00 in0.0 mm 0.00 in0.0 mm 0.12 in3.0 mm
10:05 PM 30.3°F-0.9°C 29.1°F-1.6°C 95% Calm Calm -- 30.14 in1020.7 mb 0.00 in0.0 mm 0.00 in0.0 mm 0.12 in3.0 mm
10:10 PM 30.3°F-0.9°C 29.1°F-1.6°C 95% Calm Calm -- 30.14 in1020.7 mb 0.00 in0.0 mm 0.00 in0.0 mm 0.12 in3.0 mm
10:15 PM 30.3°F-0.9°C 29.1°F-1.6°C 95% Calm Calm -- 30.14 in1020.7 mb 0.00 in0.0 mm 0.00 in0.0 mm 0.12 in3.0 mm
10:20 PM 30.3°F-0.9°C 29.1°F-1.6°C 95% Calm Calm -- 30.14 in1020.7 mb 0.00 in0.0 mm 0.00 in0.0 mm 0.12 in3.0 mm
10:25 PM 30.3°F-0.9°C 29.1°F-1.6°C 95% Calm Calm -- 30.15 in1021.0 mb 0.00 in0.0 mm 0.00 in0.0 mm 0.12 in3.0 mm
10:30 PM 30.3°F-0.9°C 29.1°F-1.6°C 95% Calm Calm -- 30.15 in1021.0 mb 0.00 in0.0 mm 0.00 in0.0 mm 0.12 in3.0 mm
10:35 PM 30.3°F-0.9°C 29.1°F-1.6°C 95% Calm Calm -- 30.15 in1021.0 mb 0.00 in0.0 mm 0.00 in0.0 mm 0.12 in3.0 mm
10:40 PM 30.3°F-0.9°C 29.1°F-1.6°C 95% Calm Calm -- 30.15 in1021.0 mb 0.00 in0.0 mm 0.00 in0.0 mm 0.12 in3.0 mm
10:45 PM 30.3°F-0.9°C 29.1°F-1.6°C 95% Calm Calm -- 30.15 in1021.0 mb 0.00 in0.0 mm 0.00 in0.0 mm 0.12 in3.0 mm
10:50 PM 30.3°F-0.9°C 29.1°F-1.6°C 95% Calm Calm -- 30.16 in1021.3 mb 0.00 in0.0 mm 0.00 in0.0 mm 0.12 in3.0 mm
10:55 PM 30.3°F-0.9°C 29.1°F-1.6°C 95% Calm Calm -- 30.16 in1021.3 mb 0.00 in0.0 mm 0.00 in0.0 mm 0.12 in3.0 mm
11:00 PM 30.3°F-0.9°C 29.1°F-1.6°C 95% Calm Calm -- 30.15 in1021.0 mb 0.00 in0.0 mm 0.00 in0.0 mm 0.12 in3.0 mm
11:05 PM 30.2°F-1.0°C 28.9°F-1.7°C 95% Calm Calm -- 30.15 in1021.0 mb 0.00 in0.0 mm 0.00 in0.0 mm 0.12 in3.0 mm
11:10 PM 30.2°F-1.0°C 28.9°F-1.7°C 95% Calm Calm -- 30.15 in1021.0 mb 0.00 in0.0 mm 0.00 in0.0 mm 0.12 in3.0 mm
11:15 PM 30.2°F-1.0°C 28.9°F-1.7°C 95% Calm Calm -- 30.15 in1021.0 mb 0.00 in0.0 mm 0.00 in0.0 mm 0.12 in3.0 mm
11:20 PM 30.1°F-1.1°C 28.8°F-1.8°C 95% Calm Calm -- 30.15 in1021.0 mb 0.00 in0.0 mm 0.00 in0.0 mm 0.12 in3.0 mm
11:25 PM 30.1°F-1.1°C 28.8°F-1.8°C 95% Calm Calm -- 30.15 in1021.0 mb 0.00 in0.0 mm 0.00 in0.0 mm 0.12 in3.0 mm
11:30 PM 30.1°F-1.1°C 28.8°F-1.8°C 95% Calm Calm -- 30.15 in1021.0 mb 0.00 in0.0 mm 0.00 in0.0 mm 0.12 in3.0 mm
11:35 PM 30.1°F-1.1°C 28.8°F-1.8°C 95% Calm Calm -- 30.14 in1020.7 mb 0.00 in0.0 mm 0.00 in0.0 mm 0.12 in3.0 mm
11:40 PM 30.1°F-1.1°C 28.8°F-1.8°C 95% Calm Calm -- 30.14 in1020.7 mb 0.00 in0.0 mm 0.00 in0.0 mm 0.12 in3.0 mm
11:45 PM 30.1°F-1.1°C 28.8°F-1.8°C 95% Calm Calm -- 30.14 in1020.7 mb 0.00 in0.0 mm 0.00 in0.0 mm 0.12 in3.0 mm
11:50 PM 30.2°F-1.0°C 28.9°F-1.7°C 95% Calm Calm -- 30.14 in1020.7 mb 0.00 in0.0 mm 0.00 in0.0 mm 0.12 in3.0 mm
11:55 PM 30.2°F-1.0°C 28.9°F-1.7°C 95% Calm Calm -- 30.13 in1020.3 mb 0.00 in0.0 mm 0.00 in0.0 mm 0.12 in3.0 mm